Time;durP1;ratioP1;P1;durP2;ratioP2;P2;SDS_P1;SDS_P2;PMS_P1;PMS_P2;Temp;Humidity;BMP_temperature;BMP_pressure;BME280_temperature;BME280_humidity;BME280_pressure;Samples;Min_cycle;Max_cycle;Signal;HPM_P1;HPM_P2
2023/01/03 00:02:24;;;;;;;;;25.67;23.33;;;;;9.56;100.00;102437.59;5083079;27;47047;-78
2023/01/03 00:04:50;;;;;;;;;27.00;24.75;;;;;9.56;100.00;102437.59;5101813;27;45473;-78
2023/01/03 00:07:32;;;;;;;;;20.67;19.67;;;;;9.54;100.00;102442.22;5083350;27;45467;-78
2023/01/03 00:09:58;;;;;;;;;29.00;22.50;;;;;9.51;100.00;102437.00;5077746;27;45612;-78
2023/01/03 00:12:24;;;;;;;;;23.75;20.50;;;;;9.34;100.00;102420.00;5081456;27;47740;-77
2023/01/03 00:14:49;;;;;;;;;21.33;21.33;;;;;9.42;100.00;102437.63;5086241;27;45325;-78
2023/01/03 00:17:14;;;;;;;;;28.00;24.67;;;;;9.42;100.00;102446.63;5101893;27;45526;-77
2023/01/03 00:19:42;;;;;;;;;19.33;19.00;;;;;9.43;100.00;102444.75;5106153;27;45380;-77
2023/01/03 00:22:09;;;;;;;;;27.00;25.67;;;;;9.32;100.00;102430.06;5101120;27;45614;-77
2023/01/03 00:24:34;;;;;;;;;26.00;22.33;;;;;9.38;100.00;102439.63;5086037;27;45448;-78
2023/01/03 00:26:59;;;;;;;;;25.33;20.33;;;;;9.35;100.00;102435.28;5101117;27;45386;-78
2023/01/03 00:29:25;;;;;;;;;27.67;23.33;;;;;9.32;100.00;102438.19;5099035;27;45341;-78
2023/01/03 00:31:51;;;;;;;;;22.67;21.33;;;;;9.30;100.00;102433.84;5102431;27;45521;-78
2023/01/03 00:34:17;;;;;;;;;25.33;20.00;;;;;9.24;100.00;102436.94;5103396;27;45423;-78
2023/01/03 00:36:43;;;;;;;;;24.67;23.33;;;;;9.22;100.00;102431.63;5102199;27;45418;-78
2023/01/03 00:39:10;;;;;;;;;28.67;24.67;;;;;9.24;100.00;102426.97;5085846;27;45501;-78
2023/01/03 00:41:36;;;;;;;;;23.00;22.00;;;;;9.25;100.00;102427.84;5082726;27;47186;-78
2023/01/03 00:44:02;;;;;;;;;32.33;27.33;;;;;9.28;100.00;102447.50;5101697;27;45315;-77
2023/01/03 00:46:28;;;;;;;;;25.33;21.67;;;;;9.26;100.00;102444.03;5101634;27;45298;-78
2023/01/03 00:48:53;;;;;;;;;20.33;19.00;;;;;9.19;100.00;102430.97;5104659;27;45432;-78
2023/01/03 00:51:23;;;;;;;;;23.00;20.67;;;;;9.24;100.00;102434.25;5104259;27;45377;-77
2023/01/03 00:53:50;;;;;;;;;18.00;17.00;;;;;9.25;100.00;102433.28;5100759;27;45562;-77
2023/01/03 00:56:18;;;;;;;;;18.33;15.33;;;;;9.16;100.00;102421.16;5100471;27;45314;-78
2023/01/03 00:58:45;;;;;;;;;20.00;16.33;;;;;9.25;100.00;102438.69;5102596;27;45402;-77
2023/01/03 01:01:23;;;;;;;;;17.33;15.00;;;;;9.15;100.00;102422.13;5085116;27;48079;-78
2023/01/03 01:03:53;;;;;;;;;20.00;18.00;;;;;9.20;100.00;102422.72;5078890;27;45934;-78
2023/01/03 01:06:24;;;;;;;;;22.00;20.00;;;;;9.19;100.00;102425.53;5101495;27;45245;-78
2023/01/03 01:08:52;;;;;;;;;19.67;19.67;;;;;9.19;100.00;102426.41;5078980;27;45559;-77
2023/01/03 01:11:18;;;;;;;;;14.00;13.67;;;;;9.20;100.00;102427.28;5101020;27;45585;-78
2023/01/03 01:13:45;;;;;;;;;16.00;14.33;;;;;9.11;100.00;102419.72;5100075;27;45320;-78
2023/01/03 01:16:14;;;;;;;;;15.67;13.33;;;;;9.16;100.00;102439.28;5082741;27;45369;-78
2023/01/03 01:18:41;;;;;;;;;16.67;14.67;;;;;9.17;100.00;102444.63;5102192;27;45440;-78
2023/01/03 01:21:11;;;;;;;;;15.00;14.00;;;;;9.09;100.00;102425.25;5102988;27;45333;-78
2023/01/03 01:23:38;;;;;;;;;15.67;15.33;;;;;9.17;100.00;102433.75;5101526;27;45559;-78
2023/01/03 01:26:05;;;;;;;;;21.67;17.00;;;;;9.21;100.00;102432.59;5100339;27;45409;-78
2023/01/03 01:28:31;;;;;;;;;17.67;14.33;;;;;9.20;100.00;102438.13;5083274;27;45358;-78
2023/01/03 01:30:58;;;;;;;;;14.33;14.00;;;;;9.13;100.00;102425.94;5095712;27;46475;-78
2023/01/03 01:33:25;;;;;;;;;16.33;14.00;;;;;9.18;100.00;102440.94;5094399;27;45298;-78
2023/01/03 01:35:50;;;;;;;;;18.00;13.33;;;;;9.13;100.00;102432.19;5101184;27;45306;-78
2023/01/03 01:38:15;;;;;;;;;18.67;10.67;;;;;9.15;100.00;102441.13;5096321;27;45350;-77
2023/01/03 01:40:41;;;;;;;;;16.67;15.67;;;;;9.10;100.00;102432.41;5081615;27;47535;-77
2023/01/03 01:46:27;;;;;;;;;21.33;15.67;;;;;9.18;100.00;102440.06;5100711;27;45420;-78
2023/01/03 01:49:04;;;;;;;;;16.00;14.33;;;;;9.17;100.00;102452.75;5077525;27;45318;-78
2023/01/03 01:51:33;;;;;;;;;9.00;5.33;;;;;9.17;100.00;102457.28;5085085;27;47243;-78
2023/01/03 01:54:02;;;;;;;;;15.00;14.00;;;;;9.16;100.00;102442.88;5101820;27;45409;-78
2023/01/03 01:56:33;;;;;;;;;15.67;14.67;;;;;9.12;100.00;102444.03;5099917;27;45288;-76
2023/01/03 01:58:59;;;;;;;;;21.00;17.00;;;;;9.14;100.00;102454.75;5079741;27;45405;-76
2023/01/03 02:01:25;;;;;;;;;18.00;15.00;;;;;9.15;100.00;102456.50;5099803;27;46593;-77
2023/01/03 02:04:00;;;;;;;;;17.33;16.33;;;;;9.12;100.00;102451.31;5099712;27;45603;-77
2023/01/03 02:06:27;;;;;;;;;19.33;14.67;;;;;9.11;100.00;102457.69;5100168;27;45457;-76
2023/01/03 02:08:52;;;;;;;;;13.33;13.00;;;;;9.11;100.00;102455.84;5096421;27;45412;-77
2023/01/03 02:14:59;;;;;;;;;13.00;13.00;;;;;9.04;100.00;102465.34;5100730;27;45331;-77
2023/01/03 02:17:34;;;;;;;;;15.67;13.00;;;;;9.09;100.00;102468.63;5089531;27;45460;-77
2023/01/03 02:20:13;;;;;;;;;14.33;9.00;;;;;9.07;100.00;102475.97;5099747;27;45413;-76
2023/01/03 02:23:15;;;;;;;;;10.67;9.00;;;;;9.07;100.00;102475.09;5079060;27;47889;-77
2023/01/03 02:25:56;;;;;;;;;10.00;7.33;;;;;9.10;100.00;102474.94;5074475;27;45470;-77
2023/01/03 02:28:46;;;;;;;;;13.00;10.00;;;;;9.09;100.00;102471.34;5098879;27;45372;-77
2023/01/03 02:31:23;;;;;;;;;9.67;9.67;;;;;9.06;100.00;102467.97;5077916;27;45306;-77
2023/01/03 02:34:05;;;;;;;;;14.33;11.67;;;;;9.08;100.00;102472.31;5101765;27;45505;-77
2023/01/03 02:36:37;;;;;;;;;13.67;13.00;;;;;9.08;100.00;102483.16;5089485;27;45685;-76
2023/01/03 02:39:08;;;;;;;;;11.33;10.00;;;;;9.08;100.00;102479.56;5082290;27;45456;-78
2023/01/03 02:41:44;;;;;;;;;13.00;11.33;;;;;9.02;100.00;102467.28;5099455;27;45254;-76
2023/01/03 02:44:19;;;;;;;;;8.67;8.67;;;;;9.11;100.00;102477.53;5098124;27;45996;-76
2023/01/03 02:47:03;;;;;;;;;9.00;7.33;;;;;9.12;100.00;102475.72;5081541;27;45370;-77
2023/01/03 02:49:43;;;;;;;;;11.00;9.00;;;;;9.09;100.00;102463.22;5091098;27;45393;-78
2023/01/03 02:52:17;;;;;;;;;9.67;9.00;;;;;9.15;100.00;102461.94;5101338;27;45397;-77
2023/01/03 02:54:53;;;;;;;;;9.00;9.00;;;;;9.25;100.00;102469.41;5103027;27;45614;-77
2023/01/03 02:57:26;;;;;;;;;7.67;7.67;;;;;9.26;100.00;102471.16;5078948;27;45986;-78
2023/01/03 03:00:02;;;;;;;;;6.67;6.33;;;;;9.21;100.00;102470.56;5102978;27;45602;-77
2023/01/03 03:02:33;;;;;;;;;10.00;7.33;;;;;9.27;100.00;102482.88;5099552;27;45339;-77
2023/01/03 03:05:01;;;;;;;;;7.00;7.00;;;;;9.30;100.00;102475.41;5097856;27;46529;-77
2023/01/03 03:07:36;;;;;;;;;11.00;7.00;;;;;9.36;100.00;102483.13;5083369;27;45266;-77
2023/01/03 03:15:44;;;;;;;;;8.33;8.00;;;;;9.46;100.00;102468.97;5099188;27;45380;-77
2023/01/03 03:18:35;;;;;;;;;10.67;8.33;;;;;9.48;100.00;102473.34;5096730;27;45361;-77
2023/01/03 03:26:41;;;;;;;;;11.00;9.67;;;;;9.44;100.00;102473.63;5097772;27;45348;-77
2023/01/03 03:29:15;;;;;;;;;13.00;9.00;;;;;9.42;100.00;102464.75;5105752;27;45247;-77
2023/01/03 03:31:45;;;;;;;;;9.00;8.00;;;;;9.45;100.00;102478.97;5095472;27;45389;-77
2023/01/03 03:34:11;;;;;;;;;11.00;8.00;;;;;9.45;100.00;102475.38;5102565;27;45504;-77
2023/01/03 03:36:45;;;;;;;;;7.33;7.00;;;;;9.43;100.00;102477.31;5085096;27;47258;-77
2023/01/03 03:45:01;;;;;;;;;8.00;5.33;;;;;9.33;100.00;102486.06;5105330;27;45303;-76
2023/01/03 03:47:36;;;;;;;;;10.67;9.00;;;;;9.44;100.00;102479.06;5082437;27;45745;-77
2023/01/03 03:50:07;;;;;;;;;9.33;7.67;;;;;9.50;100.00;102473.22;5101801;27;45262;-77
2023/01/03 03:52:35;;;;;;;;;7.00;7.00;;;;;9.56;100.00;102483.72;5084146;27;45394;-77
2023/01/03 03:55:09;;;;;;;;;9.00;7.33;;;;;9.62;100.00;102484.19;5103140;27;45588;-77
2023/01/03 03:57:42;;;;;;;;;8.00;8.00;;;;;9.55;100.00;102481.97;5102440;27;46091;-78
2023/01/03 04:00:14;;;;;;;;;7.33;3.67;;;;;9.40;100.00;102494.69;5104167;27;45337;-77
2023/01/03 04:02:41;;;;;;;;;10.00;6.67;;;;;9.44;100.00;102493.50;5085318;27;45477;-77
2023/01/03 04:05:09;;;;;;;;;7.00;5.00;;;;;9.36;100.00;102460.56;5100240;27;45472;-77
2023/01/03 04:07:35;;;;;;;;;6.33;5.33;;;;;9.35;100.00;102478.69;5082802;27;46366;-78
2023/01/03 04:10:01;;;;;;;;;7.00;7.00;;;;;9.43;100.00;102483.59;5102823;27;45370;-78
2023/01/03 04:12:26;;;;;;;;;7.67;7.00;;;;;9.27;100.00;102469.31;5102288;27;45511;-77
2023/01/03 04:14:51;;;;;;;;;6.33;6.33;;;;;9.41;100.00;102492.84;5103548;27;45289;-77
2023/01/03 04:17:17;;;;;;;;;8.00;6.33;;;;;9.42;100.00;102498.16;5086886;27;45424;-76
2023/01/03 04:19:42;;;;;;;;;6.00;6.00;;;;;9.50;100.00;102498.53;5101954;27;45423;-77
2023/01/03 04:22:07;;;;;;;;;7.33;7.00;;;;;9.25;100.00;102480.25;5102855;27;45147;-77
2023/01/03 04:24:33;;;;;;;;;9.67;7.00;;;;;9.41;100.00;102510.00;5102288;27;45316;-77
2023/01/03 04:26:58;;;;;;;;;9.33;9.33;;;;;9.49;100.00;102504.06;5102615;27;45336;-77
2023/01/03 04:29:23;;;;;;;;;8.33;7.33;;;;;9.38;100.00;102478.50;5085974;27;45416;-78
2023/01/03 04:31:49;;;;;;;;;7.00;4.33;;;;;9.50;100.00;102481.38;5102798;27;45266;-77
2023/01/03 04:34:14;;;;;;;;;11.00;9.00;;;;;9.54;100.00;102501.94;5102147;27;45371;-77
2023/01/03 04:36:39;;;;;;;;;7.00;7.00;;;;;9.58;100.00;102504.31;5101367;27;46521;-78
2023/01/03 04:39:05;;;;;;;;;5.00;5.00;;;;;9.57;100.00;102515.31;5102496;27;45297;-78
2023/01/03 04:41:30;;;;;;;;;8.00;8.00;;;;;9.60;100.00;102506.94;5083574;27;45449;-77
2023/01/03 04:44:02;;;;;;;;;8.67;6.33;;;;;9.63;100.00;102504.06;5085994;27;45331;-77
2023/01/03 04:46:36;;;;;;;;;11.67;11.00;;;;;9.67;100.00;102502.88;5101469;27;45460;-77
2023/01/03 04:49:03;;;;;;;;;8.67;4.67;;;;;9.65;100.00;102504.78;5103299;27;45308;-78
2023/01/03 04:51:28;;;;;;;;;5.00;5.00;;;;;9.74;100.00;102510.50;5103841;27;45355;-77
2023/01/03 04:53:54;;;;;;;;;7.33;4.33;;;;;9.72;100.00;102522.44;5103264;27;45367;-77
2023/01/03 04:56:31;;;;;;;;;7.33;7.33;;;;;9.65;100.00;102515.66;5082795;27;47436;-77
2023/01/03 04:58:58;;;;;;;;;4.67;4.67;;;;;9.60;100.00;102509.66;5079528;27;45472;-80
2023/01/03 05:01:23;;;;;;;;;9.67;8.00;;;;;9.58;100.00;102511.59;5082932;27;45424;-77
2023/01/03 05:03:50;;;;;;;;;7.67;7.67;;;;;9.43;100.00;102515.28;5098164;27;45498;-77
2023/01/03 05:06:16;;;;;;;;;8.00;7.67;;;;;9.50;100.00;102530.19;5101827;27;46416;-77
2023/01/03 05:08:46;;;;;;;;;9.00;7.00;;;;;9.52;100.00;102525.56;5079611;27;45476;-77
2023/01/03 05:11:12;;;;;;;;;5.00;5.00;;;;;9.43;100.00;102531.56;5083288;27;45637;-77
2023/01/03 05:13:37;;;;;;;;;7.33;5.33;;;;;9.22;100.00;102529.25;5082397;27;45452;-79
2023/01/03 05:16:10;;;;;;;;;5.33;5.33;;;;;9.35;100.00;102541.06;5101681;27;45541;-77
2023/01/03 05:18:37;;;;;;;;;7.67;7.67;;;;;9.46;100.00;102537.69;5080718;27;45424;-76
2023/01/03 05:26:38;;;;;;;;;8.33;7.67;;;;;9.58;100.00;102542.31;5100308;27;45391;-78
2023/01/03 05:29:03;;;;;;;;;7.67;5.67;;;;;9.50;100.00;102522.06;5103315;27;47139;-78
2023/01/03 05:31:29;;;;;;;;;7.67;7.00;;;;;9.51;100.00;102537.38;5101758;27;45416;-77
2023/01/03 05:33:55;;;;;;;;;6.33;5.00;;;;;9.58;100.00;102547.75;5084397;27;45342;-79
2023/01/03 05:36:21;;;;;;;;;8.00;5.67;;;;;9.54;100.00;102534.47;5083430;27;47397;-77
2023/01/03 05:38:46;;;;;;;;;8.00;5.00;;;;;9.60;100.00;102550.38;5101669;27;45553;-77
2023/01/03 05:41:13;;;;;;;;;9.00;7.67;;;;;9.48;100.00;102537.59;5099967;27;45368;-77
2023/01/03 05:43:38;;;;;;;;;4.67;4.67;;;;;9.50;100.00;102539.22;5103828;27;45291;-77
2023/01/03 05:46:04;;;;;;;;;9.33;5.67;;;;;9.27;100.00;102543.41;5082283;27;47007;-81
2023/01/03 05:48:29;;;;;;;;;10.00;7.33;;;;;9.29;100.00;102536.03;5103023;27;45417;-77
2023/01/03 05:50:57;;;;;;;;;7.00;7.00;;;;;9.42;100.00;102547.00;5085695;27;45747;-77
2023/01/03 05:53:24;;;;;;;;;4.00;3.67;;;;;9.23;100.00;102531.00;5102824;27;45475;-79
2023/01/03 05:55:50;;;;;;;;;7.33;5.67;;;;;9.30;100.00;102537.78;5078219;27;48396;-77
2023/01/03 05:58:15;;;;;;;;;8.33;6.33;;;;;9.23;100.00;102527.41;5081872;27;45341;-77
2023/01/03 06:00:41;;;;;;;;;10.00;8.00;;;;;9.24;100.00;102537.28;5096647;27;45154;-78
2023/01/03 06:03:06;;;;;;;;;2.00;1.00;;;;;9.18;100.00;102543.09;5101117;27;45509;-78
2023/01/03 06:05:31;;;;;;;;;7.00;7.00;;;;;9.11;100.00;102548.03;5081253;27;47644;-77
2023/01/03 06:08:00;;;;;;;;;7.33;7.33;;;;;9.14;100.00;102553.25;5082353;27;45423;-77
2023/01/03 06:10:26;;;;;;;;;8.00;8.00;;;;;9.16;100.00;102540.50;5100535;27;45371;-77
2023/01/03 06:12:51;;;;;;;;;8.33;7.33;;;;;9.18;100.00;102551.25;5080273;27;45355;-80
2023/01/03 06:15:17;;;;;;;;;10.67;10.67;;;;;9.12;100.00;102554.34;5081335;27;45969;-78
2023/01/03 06:17:56;;;;;;;;;8.00;7.00;;;;;9.12;100.00;102552.50;5099777;27;45326;-78
2023/01/03 06:20:22;;;;;;;;;8.00;8.00;;;;;9.14;100.00;102555.09;5099170;27;45416;-77
2023/01/03 06:22:47;;;;;;;;;8.33;8.33;;;;;9.03;100.00;102544.94;5080701;27;45480;-80
2023/01/03 06:25:13;;;;;;;;;8.00;7.00;;;;;9.09;100.00;102563.53;5081744;27;47424;-77
2023/01/03 06:27:38;;;;;;;;;6.00;4.00;;;;;9.03;100.00;102555.78;5082469;27;45452;-77
2023/01/03 06:30:04;;;;;;;;;8.33;8.33;;;;;9.09;100.00;102571.66;5103322;27;45297;-80
2023/01/03 06:32:29;;;;;;;;;8.33;7.00;;;;;9.03;100.00;102561.19;5098761;27;45610;-76
2023/01/03 06:34:55;;;;;;;;;4.33;4.33;;;;;9.04;100.00;102571.09;5101160;27;45395;-78
2023/01/03 06:37:20;;;;;;;;;7.33;6.33;;;;;8.95;100.00;102571.63;5099236;27;45592;-77
2023/01/03 06:39:46;;;;;;;;;8.67;8.67;;;;;8.97;100.00;102573.31;5078331;27;45373;-79
2023/01/03 06:53:19;;;;;;;;;8.33;8.00;;;;;8.91;100.00;102589.06;5092798;27;45389;-77
2023/01/03 06:55:45;;;;;;;;;7.00;7.00;;;;;8.85;100.00;102584.88;5075742;27;47253;-77
2023/01/03 06:58:12;;;;;;;;;7.33;7.00;;;;;8.76;100.00;102571.03;5081339;27;45507;-77
2023/01/03 07:00:40;;;;;;;;;10.67;8.00;;;;;8.91;100.00;102583.66;5099893;27;45206;-78
2023/01/03 07:03:06;;;;;;;;;10.33;10.33;;;;;8.86;100.00;102570.34;5103055;27;45424;-75
2023/01/03 07:05:31;;;;;;;;;9.00;9.00;;;;;8.94;100.00;102591.56;5100045;27;45516;-77
2023/01/03 07:07:57;;;;;;;;;9.33;7.00;;;;;8.93;100.00;102592.53;5083664;27;45558;-77
2023/01/03 07:10:22;;;;;;;;;8.67;8.67;;;;;8.96;100.00;102595.06;5102498;27;45532;-79
2023/01/03 07:15:32;;;;;;;;;5.33;5.33;;;;;9.06;100.00;102588.09;5102630;27;45464;-78
2023/01/03 07:17:57;;;;;;;;;8.67;7.33;;;;;9.05;100.00;102591.81;5105777;27;45727;-78
2023/01/03 07:20:23;;;;;;;;;12.00;8.00;;;;;8.96;100.00;102576.09;5087657;27;45305;-78
2023/01/03 07:22:48;;;;;;;;;10.33;9.00;;;;;9.06;100.00;102598.94;5102830;27;45566;-79
2023/01/03 07:25:15;;;;;;;;;10.00;6.67;;;;;9.09;100.00;102598.78;5106023;27;45383;-80
2023/01/03 07:27:40;;;;;;;;;12.00;8.33;;;;;9.15;100.00;102608.38;5103513;27;45359;-79
2023/01/03 07:30:06;;;;;;;;;10.00;7.33;;;;;9.15;100.00;102611.97;5088374;27;45489;-78
2023/01/03 07:32:32;;;;;;;;;5.67;5.67;;;;;9.22;100.00;102610.63;5102908;27;45473;-79
2023/01/03 07:34:57;;;;;;;;;11.33;9.33;;;;;9.26;100.00;102611.31;5087584;27;48268;-80
2023/01/03 07:37:22;;;;;;;;;9.33;8.00;;;;;9.29;100.00;102611.09;5087299;27;45310;-79
2023/01/03 07:39:48;;;;;;;;;9.00;7.33;;;;;9.32;100.00;102616.34;5074633;28;45515;-78
2023/01/03 07:44:57;;;;;;;;;9.00;8.00;;;;;9.48;100.00;102619.00;5107145;27;44990;-77
2023/01/03 07:47:22;;;;;;;;;9.00;7.00;;;;;9.47;100.00;102619.94;5102205;27;45132;-78
2023/01/03 07:49:48;;;;;;;;;7.33;7.33;;;;;9.48;100.00;102621.69;5106507;27;45381;-78
2023/01/03 07:52:13;;;;;;;;;9.00;9.00;;;;;9.43;100.00;102600.25;5102910;27;44954;-79
2023/01/03 07:54:39;;;;;;;;;13.00;10.00;;;;;9.50;100.00;102622.47;5081088;27;47459;-79
2023/01/03 07:57:04;;;;;;;;;10.00;8.00;;;;;9.53;100.00;102622.28;5099202;27;45400;-79
2023/01/03 07:59:29;;;;;;;;;10.67;9.33;;;;;9.42;100.00;102612.13;5107053;27;45542;-79
2023/01/03 08:01:55;;;;;;;;;7.67;7.33;;;;;9.44;100.00;102612.00;5102202;27;45297;-78
2023/01/03 08:04:20;;;;;;;;;9.00;9.00;;;;;9.51;100.00;102629.63;5100698;27;46227;-79
2023/01/03 08:06:45;;;;;;;;;9.00;9.00;;;;;9.45;100.00;102627.31;5080908;27;46071;-78
2023/01/03 08:14:59;;;;;;;;;11.33;10.00;;;;;9.44;100.00;102636.41;5002470;28;45417;-81
2023/01/03 08:17:24;;;;;;;;;11.67;9.67;;;;;9.50;100.00;102641.44;5045079;27;45321;-78
2023/01/03 08:19:49;;;;;;;;;10.67;9.00;;;;;9.60;100.00;102653.50;5097965;27;45291;-77
2023/01/03 08:22:15;;;;;;;;;8.00;5.33;;;;;9.51;100.00;102637.78;5073779;27;45496;-78
2023/01/03 08:24:40;;;;;;;;;9.67;8.67;;;;;9.63;100.00;102639.75;5087496;27;47131;-79
2023/01/03 08:27:05;;;;;;;;;8.67;8.67;;;;;9.69;100.00;102650.22;5074139;27;45262;-79
2023/01/03 08:29:31;;;;;;;;;14.00;12.33;;;;;9.79;100.00;102651.34;5087403;27;45833;-78
2023/01/03 08:31:58;;;;;;;;;10.67;9.00;;;;;9.84;100.00;102659.22;5084511;27;45724;-78
2023/01/03 08:34:27;;;;;;;;;13.00;11.00;;;;;9.85;100.00;102660.97;5081004;27;47582;-79
2023/01/03 08:37:01;;;;;;;;;12.00;10.00;;;;;9.81;100.00;102637.69;5076552;27;45188;-78
2023/01/03 08:39:31;;;;;;;;;10.00;8.67;;;;;9.97;100.00;102658.34;5102326;27;45435;-79
2023/01/03 08:42:01;;;;;;;;;11.67;11.00;;;;;10.02;100.00;102653.47;5084438;27;45360;-78
2023/01/03 08:44:26;;;;;;;;;8.33;8.33;;;;;10.11;100.00;102661.03;5078155;27;47568;-79
2023/01/03 08:46:54;;;;;;;;;10.00;8.00;;;;;10.08;100.00;102663.94;5083644;27;45328;-78
2023/01/03 08:49:21;;;;;;;;;9.67;9.67;;;;;10.09;100.00;102657.53;5104974;27;45112;-78
2023/01/03 08:51:46;;;;;;;;;10.67;8.00;;;;;10.15;100.00;102667.16;5083999;27;45321;-78
2023/01/03 08:54:12;;;;;;;;;10.00;9.00;;;;;10.12;100.00;102662.78;5085720;27;46975;-79
2023/01/03 08:56:38;;;;;;;;;8.33;8.33;;;;;9.96;100.00;102656.59;5104881;27;45345;-78
2023/01/03 08:59:03;;;;;;;;;9.33;8.67;;;;;10.05;100.00;102661.44;5097631;27;46319;-79
2023/01/03 09:01:29;;;;;;;;;9.00;8.00;;;;;10.14;100.00;102663.56;5083404;27;45381;-79
2023/01/03 09:03:54;;;;;;;;;13.00;10.67;;;;;10.10;100.00;102659.28;5076244;27;48089;-79
2023/01/03 09:06:19;;;;;;;;;12.67;8.67;;;;;10.24;100.00;102671.13;5098325;27;45359;-80
2023/01/03 09:08:45;;;;;;;;;11.67;10.00;;;;;10.31;100.00;102664.34;5079665;27;45437;-79
2023/01/03 09:11:11;;;;;;;;;11.67;11.67;;;;;10.35;100.00;102668.59;5087165;27;45643;-79
2023/01/03 09:13:39;;;;;;;;;12.00;9.33;;;;;10.25;100.00;102662.03;5099469;27;46374;-79
2023/01/03 09:16:07;;;;;;;;;11.67;9.67;;;;;9.97;100.00;102666.50;5104438;27;45406;-79
2023/01/03 09:18:34;;;;;;;;;9.00;7.67;;;;;10.06;100.00;102673.19;5097680;27;45531;-79
2023/01/03 09:21:00;;;;;;;;;14.00;9.00;;;;;10.02;100.00;102672.50;5103933;27;45325;-79
2023/01/03 09:23:25;;;;;;;;;10.33;9.00;;;;;9.94;100.00;102671.22;5078266;27;48092;-81
2023/01/03 09:25:51;;;;;;;;;10.67;9.33;;;;;9.96;100.00;102670.16;5104343;27;45328;-79
2023/01/03 09:28:16;;;;;;;;;10.00;8.67;;;;;9.88;100.00;102685.19;5079790;27;45503;-79
2023/01/03 09:30:42;;;;;;;;;18.33;10.00;;;;;9.77;100.00;102677.75;5085784;27;45496;-80
2023/01/03 09:33:09;;;;;;;;;14.33;9.67;;;;;9.74;100.00;102677.91;5099300;27;46241;-78
2023/01/03 09:35:35;;;;;;;;;9.00;9.00;;;;;9.96;100.00;102672.88;5083834;27;45377;-79
2023/01/03 09:38:00;;;;;;;;;11.00;11.00;;;;;10.09;100.00;102681.09;5079967;27;45271;-78
2023/01/03 09:40:25;;;;;;;;;11.00;11.00;;;;;9.95;100.00;102676.56;5101124;27;45231;-76
2023/01/03 09:45:38;;;;;;;;;16.33;12.67;;;;;9.93;100.00;102667.66;5093181;27;45242;-77
2023/01/03 09:48:05;;;;;;;;;14.00;12.33;;;;;9.98;100.00;102646.50;5080310;28;45396;-77
2023/01/03 09:50:37;;;;;;;;;15.00;13.00;;;;;10.04;100.00;102664.25;5102905;27;45434;-78
2023/01/03 10:04:49;;;;;;;;;6.00;5.00;;;;;10.40;100.00;102686.34;5103084;27;45397;-79
2023/01/03 10:07:32;;;;;;;;;13.67;9.67;;;;;10.46;100.00;102685.06;5096897;27;45270;-79
2023/01/03 10:10:39;;;;;;;;;14.33;10.33;;;;;10.39;100.00;102690.03;5081106;27;45314;-78
2023/01/03 10:13:33;;;;;;;;;13.33;13.00;;;;;10.29;100.00;102688.91;5089009;27;45393;-78
2023/01/03 10:16:32;;;;;;;;;15.67;10.33;;;;;10.22;100.00;102689.41;5097779;27;45269;-79
2023/01/03 10:19:00;;;;;;;;;15.67;10.33;;;;;10.30;100.00;102697.94;5097847;27;45408;-79
2023/01/03 10:21:47;;;;;;;;;9.00;9.00;;;;;10.42;100.00;102702.56;5080342;27;45480;-79
2023/01/03 10:24:29;;;;;;;;;18.33;11.00;;;;;10.41;100.00;102679.06;5103415;27;45194;-79
2023/01/03 10:27:15;;;;;;;;;14.00;10.33;;;;;10.52;100.00;102695.53;5070223;27;48241;-79
2023/01/03 10:29:43;;;;;;;;;17.67;12.33;;;;;10.63;100.00;102695.72;5098497;27;45476;-79
2023/01/03 10:32:41;;;;;;;;;12.00;11.00;;;;;10.61;100.00;102691.34;5083405;27;45223;-80
2023/01/03 10:35:29;;;;;;;;;10.00;10.00;;;;;10.55;100.00;102698.06;5095440;27;45762;-78
2023/01/03 10:37:56;;;;;;;;;10.00;8.00;;;;;10.52;100.00;102696.41;5103856;27;45521;-79
2023/01/03 10:40:45;;;;;;;;;4.00;4.00;;;;;10.43;100.00;102704.31;5105720;27;45470;-78
2023/01/03 10:43:18;;;;;;;;;7.33;7.33;;;;;10.45;100.00;102695.06;5077663;27;45293;-78
2023/01/03 10:45:59;;;;;;;;;9.00;5.00;;;;;10.40;100.00;102682.75;5107555;27;45197;-79
2023/01/03 10:48:40;;;;;;;;;4.33;4.33;;;;;10.39;100.00;102676.44;5087082;27;48315;-79
2023/01/03 10:51:29;;;;;;;;;10.67;10.33;;;;;10.46;100.00;102685.94;5087677;27;45495;-78
2023/01/03 10:53:58;;;;;;;;;9.67;9.33;;;;;10.50;100.00;102689.34;5047908;27;45336;-78
2023/01/03 10:56:25;;;;;;;;;14.00;11.33;;;;;10.63;100.00;102690.28;5082475;27;45594;-78
2023/01/03 10:59:11;;;;;;;;;15.00;11.00;;;;;10.61;100.00;102694.94;5101672;27;45902;-78
2023/01/03 11:01:37;;;;;;;;;10.67;9.00;;;;;10.32;100.00;102690.53;5102702;27;45412;-79
2023/01/03 11:04:14;;;;;;;;;10.67;8.33;;;;;10.30;100.00;102689.78;5084184;27;45455;-78
2023/01/03 11:06:54;;;;;;;;;8.00;5.33;;;;;10.32;100.00;102685.97;5105130;27;45469;-79
2023/01/03 11:09:20;;;;;;;;;5.00;3.00;;;;;10.28;100.00;102687.16;5076736;27;47800;-77
2023/01/03 11:11:58;;;;;;;;;4.00;4.00;;;;;10.38;100.00;102693.72;5081194;27;45341;-78
2023/01/03 11:14:27;;;;;;;;;4.67;4.67;;;;;10.46;100.00;102687.78;5084813;27;45470;-78
2023/01/03 11:16:59;;;;;;;;;8.00;4.67;;;;;10.40;100.00;102682.75;5084953;27;45464;-78
2023/01/03 11:19:27;;;;;;;;;7.67;5.00;;;;;10.36;100.00;102673.06;5105656;27;46215;-79
2023/01/03 11:22:12;;;;;;;;;9.67;7.00;;;;;10.50;100.00;102675.75;5081372;28;45674;-80
2023/01/03 11:25:10;;;;;;;;;9.00;5.00;;;;;10.68;100.00;102665.50;5085221;28;45314;-79
2023/01/03 11:27:47;;;;;;;;;11.00;8.67;;;;;10.96;100.00;102667.25;5075840;28;45233;-80
2023/01/03 11:30:31;;;;;;;;;14.00;12.67;;;;;11.10;100.00;102664.47;5083888;28;45527;-81
2023/01/03 11:33:06;;;;;;;;;13.67;9.00;;;;;11.17;100.00;102671.22;5081015;28;45353;-79
2023/01/03 11:35:44;;;;;;;;;5.67;5.67;;;;;11.23;100.00;102673.50;5083066;28;45345;-79
2023/01/03 11:38:38;;;;;;;;;10.67;5.33;;;;;10.98;100.00;102646.25;5078901;27;45381;-78
2023/01/03 11:41:18;;;;;;;;;5.67;5.67;;;;;10.92;100.00;102658.41;5077018;28;46120;-80
2023/01/03 11:43:53;;;;;;;;;12.00;9.00;;;;;10.95;100.00;102660.06;5082807;27;45318;-78
2023/01/03 11:46:44;;;;;;;;;9.67;9.67;;;;;10.86;100.00;102665.16;5083771;27;45355;-78
2023/01/03 11:49:38;;;;;;;;;9.00;8.67;;;;;10.88;100.00;102649.56;5083081;27;45634;-79
2023/01/03 11:52:18;;;;;;;;;7.00;6.00;;;;;11.13;100.00;102662.38;5078355;28;45487;-79
2023/01/03 11:55:12;;;;;;;;;6.33;6.33;;;;;10.88;100.00;102663.16;5079526;28;45448;-78
2023/01/03 11:57:55;;;;;;;;;9.33;5.33;;;;;10.88;100.00;102663.16;5078943;28;45368;-78
2023/01/03 12:00:38;;;;;;;;;6.00;5.00;;;;;10.98;100.00;102659.84;5080287;28;44823;-80
2023/01/03 12:03:08;;;;;;;;;9.00;8.00;;;;;10.73;100.00;102615.31;5074007;28;45536;-80
2023/01/03 12:05:43;;;;;;;;;8.00;5.33;;;;;10.81;100.00;102653.69;5078943;27;45348;-77
2023/01/03 12:08:11;;;;;;;;;18.00;8.67;;;;;10.97;100.00;102649.94;5081955;27;45245;-81
2023/01/03 12:10:53;;;;;;;;;9.33;8.00;;;;;11.01;100.00;102636.03;5083889;28;45446;-79
2023/01/03 12:13:37;;;;;;;;;8.67;7.00;;;;;10.92;100.00;102623.94;5079655;28;46489;-79
2023/01/03 12:16:07;;;;;;;;;10.00;7.33;;;;;11.08;100.00;102637.34;5079305;28;45547;-78
2023/01/03 12:18:38;;;;;;;;;9.33;9.33;;;;;11.21;100.00;102627.34;5080972;27;45496;-79
2023/01/03 12:21:11;;;;;;;;;8.00;8.00;;;;;11.04;100.00;102618.59;5092915;27;45373;-78
2023/01/03 12:23:49;;;;;;;;;7.67;4.00;;;;;10.99;100.00;102604.47;5104347;27;46327;-79
2023/01/03 12:26:16;;;;;;;;;0.00;0.00;;;;;10.78;100.00;102620.41;5099367;27;45424;-79
2023/01/03 12:28:49;;;;;;;;;10.67;7.33;;;;;10.88;100.00;102624.25;5096831;27;45408;-79
2023/01/03 12:31:26;;;;;;;;;9.00;9.00;;;;;10.68;100.00;102613.84;5100782;27;45250;-79
2023/01/03 12:34:21;;;;;;;;;8.33;6.00;;;;;10.77;100.00;102627.69;5086230;27;47259;-80
2023/01/03 12:36:52;;;;;;;;;5.00;5.00;;;;;10.93;100.00;102619.38;5101468;27;45208;-78
2023/01/03 12:39:44;;;;;;;;;8.00;6.00;;;;;10.78;100.00;102618.56;5081901;27;45319;-81